首页
METAR-TAF:

METAR-TAF

机场 :

Gustavus, 阿拉斯加州, 美国

纬度: 58-25N, 经度: 135-42W, 海拔: 10米

当前天气观测

该预报发布于28分钟前的02:56 UTC
风速5节,风向南转西南
温度 15°C
湿度 77%
气压 1010 hPa
能見度: 16.1公里
天空无云

METAR: PAGS 220256Z AUTO 21005KT 10SM CLR 15/11 A2983 RMK AO2 SLP100 T01500106 51025

时间: 19:24 (03:24 UTC)

预报

该预报发布于3小时和46分钟前的23:38 UTC
预报有效从22日的 00点(UTC)到 22日的 24点(UTC)
风速8节,风向西南
能見度: 10公里
少量云层高于4500英尺
多云层高于18000英尺
从 22日的 0900点(UTC)
风速4节,风向东南
能見度: 10公里
散云层高于500英尺
多云层高于1500英尺
碎片雾
从 22日的 1800点(UTC)
风速7节,风向东南
能見度: 10公里
散云层高于2000英尺
阴天层高于4000英尺
小阵雨

TAF: PAGS 212338Z 2200/2224 22008KT P6SM FEW045 BKN180 FM220900 13004KT P6SM BCFG SCT005 BKN015 FM221800 13007KT P6SM -SHRA SCT020 OVC040 AMD LTD TO CLD VIS AND WIND

超过4000个机场的气象观测和天气预报(METAR&TAF报告)。

可查询的气象台以黄色和红色小点在地图上表示。

将鼠标移到小点上方,可查看气象台名称。

然后点击查看天气观测和预报。

如需切换地图:点击带黑十字的绿色按钮放大地图;点击带横线的绿色按钮缩小地图;或者点击绿色箭头查看邻近地区的地图。


METAR-TAF: